createdAt,value
2023-04-15T00:01:09.984Z,9.30
2023-04-15T00:03:38.717Z,10.13
2023-04-15T00:06:07.227Z,7.63
2023-04-15T00:08:35.605Z,11.05
2023-04-15T00:11:03.954Z,10.38
2023-04-15T00:13:32.804Z,10.13
2023-04-15T00:16:01.183Z,10.52
2023-04-15T00:18:29.552Z,9.88
2023-04-15T00:20:58.088Z,9.05
2023-04-15T00:23:27.056Z,9.35
2023-04-15T00:28:23.256Z,10.75
2023-04-15T00:30:51.474Z,10.10
2023-04-15T00:33:20.188Z,11.38
2023-04-15T00:35:48.448Z,11.25
2023-04-15T00:38:16.809Z,10.90
2023-04-15T00:40:45.332Z,8.73
2023-04-15T00:43:13.649Z,10.68
2023-04-15T00:45:41.772Z,12.65
2023-04-15T00:48:11.508Z,11.23
2023-04-15T00:50:40.337Z,9.18
2023-04-15T00:53:08.687Z,10.05
2023-04-15T00:55:38.090Z,11.63
2023-04-15T00:58:06.247Z,9.98
2023-04-15T01:00:34.528Z,10.60
2023-04-15T01:03:02.884Z,10.60
2023-04-15T01:05:31.394Z,9.20
2023-04-15T01:07:59.755Z,10.40
2023-04-15T01:10:27.999Z,10.10
2023-04-15T01:12:56.478Z,9.27
2023-04-15T01:15:26.210Z,10.40
2023-04-15T01:17:54.747Z,10.82
2023-04-15T01:20:23.092Z,12.75
2023-04-15T01:22:51.601Z,11.82
2023-04-15T01:25:20.902Z,9.70
2023-04-15T01:27:49.407Z,8.48
2023-04-15T01:30:17.696Z,8.48
2023-04-15T01:32:45.931Z,8.48
2023-04-15T01:35:14.292Z,8.50
2023-04-15T01:37:42.426Z,9.43
2023-04-15T01:40:11.073Z,8.30
2023-04-15T01:42:39.290Z,7.22
2023-04-15T01:45:08.083Z,10.05
2023-04-15T01:47:39.128Z,11.40
2023-04-15T01:50:07.918Z,8.15
2023-04-15T01:55:04.317Z,8.77
2023-04-15T01:57:32.803Z,9.02
2023-04-15T02:00:01.823Z,9.10
2023-04-15T02:02:41.671Z,9.00
2023-04-15T02:05:10.445Z,8.32
2023-04-15T02:07:38.545Z,8.55
2023-04-15T02:10:07.201Z,9.40
2023-04-15T02:12:37.111Z,9.13
2023-04-15T02:17:36.967Z,7.95
2023-04-15T02:20:06.167Z,7.78
2023-04-15T02:22:35.023Z,7.68
2023-04-15T02:27:33.362Z,7.70
2023-04-15T02:30:01.679Z,6.95
2023-04-15T02:32:29.949Z,6.45
2023-04-15T02:35:02.547Z,11.90
2023-04-15T02:37:31.032Z,9.68
2023-04-15T02:39:59.379Z,7.80
2023-04-15T02:42:27.634Z,8.65
2023-04-15T02:44:56.581Z,5.80
2023-04-15T02:47:30.298Z,6.38
2023-04-15T02:49:58.673Z,7.90
2023-04-15T02:52:26.953Z,9.18
2023-04-15T02:54:55.208Z,6.03
2023-04-15T02:57:23.537Z,7.82
2023-04-15T02:59:51.857Z,6.38
2023-04-15T03:04:48.586Z,8.52
2023-04-15T03:07:18.100Z,6.53
2023-04-15T03:09:48.419Z,8.25
2023-04-15T03:12:16.935Z,8.80
2023-04-15T03:14:49.960Z,9.43
2023-04-15T03:17:18.655Z,7.65
2023-04-15T03:19:46.868Z,8.02
2023-04-15T03:22:15.448Z,5.18
2023-04-15T03:24:43.609Z,5.65
2023-04-15T03:27:12.227Z,7.60
2023-04-15T03:29:40.953Z,6.65
2023-04-15T03:32:09.217Z,8.00
2023-04-15T03:34:37.466Z,4.75
2023-04-15T03:37:06.599Z,5.65
2023-04-15T03:39:34.921Z,7.85
2023-04-15T03:42:03.152Z,7.55
2023-04-15T03:44:31.302Z,9.63
2023-04-15T03:46:59.659Z,7.68
2023-04-15T03:49:27.719Z,5.82
2023-04-15T03:51:56.004Z,6.90
2023-04-15T03:54:24.203Z,5.03
2023-04-15T03:56:52.492Z,6.70
2023-04-15T03:59:20.534Z,6.15
2023-04-15T04:01:48.818Z,6.00
2023-04-15T04:04:17.236Z,6.80
2023-04-15T04:06:46.668Z,5.05
2023-04-15T04:09:14.843Z,5.85
2023-04-15T04:11:42.973Z,7.43
2023-04-15T04:14:11.303Z,7.65
2023-04-15T04:16:39.519Z,9.48
2023-04-15T04:19:07.907Z,8.88
2023-04-15T04:21:36.345Z,5.10
2023-04-15T04:24:04.582Z,5.03
2023-04-15T04:26:32.904Z,6.20
2023-04-15T04:29:01.249Z,5.43
2023-04-15T04:31:29.871Z,6.07
2023-04-15T04:33:58.029Z,7.25
2023-04-15T04:36:26.216Z,5.57
2023-04-15T04:38:54.346Z,5.35
2023-04-15T04:41:22.482Z,7.55
2023-04-15T04:43:50.751Z,5.13
2023-04-15T04:46:19.088Z,5.85
2023-04-15T04:48:47.302Z,6.25
2023-04-15T04:51:15.595Z,4.35
2023-04-15T04:53:43.778Z,5.70
2023-04-15T04:56:12.078Z,6.97
2023-04-15T04:58:40.168Z,5.28
2023-04-15T05:01:08.504Z,7.25
2023-04-15T05:03:36.855Z,7.30
2023-04-15T05:06:05.469Z,9.40
2023-04-15T05:08:33.624Z,6.97
2023-04-15T05:11:01.958Z,6.95
2023-04-15T05:13:30.374Z,7.63
2023-04-15T05:15:58.593Z,5.40
2023-04-15T05:18:26.767Z,6.88
2023-04-15T05:20:55.057Z,8.80
2023-04-15T05:23:23.333Z,9.30
2023-04-15T05:25:51.575Z,4.82
2023-04-15T05:28:19.602Z,7.18
2023-04-15T05:30:47.956Z,8.98
2023-04-15T05:33:16.249Z,7.40
2023-04-15T05:35:44.557Z,8.50
2023-04-15T05:38:12.618Z,8.55
2023-04-15T05:40:41.005Z,7.55
2023-04-15T05:43:09.415Z,8.20
2023-04-15T05:45:37.671Z,7.00
2023-04-15T05:48:05.932Z,8.13
2023-04-15T05:50:34.267Z,10.02
2023-04-15T05:53:02.530Z,5.93
2023-04-15T05:55:30.749Z,7.85
2023-04-15T05:57:58.941Z,5.82
2023-04-15T06:00:27.183Z,8.50
2023-04-15T06:02:56.825Z,7.57
2023-04-15T06:05:25.536Z,7.32
2023-04-15T06:07:53.679Z,8.68
2023-04-15T06:10:21.981Z,7.95
2023-04-15T06:12:50.266Z,10.00
2023-04-15T06:15:18.649Z,9.70
2023-04-15T06:17:46.781Z,11.30
2023-04-15T06:20:15.015Z,10.43
2023-04-15T06:22:43.617Z,12.93
2023-04-15T06:27:39.845Z,8.52
2023-04-15T06:30:08.595Z,7.22
2023-04-15T06:35:05.112Z,9.52
2023-04-15T06:37:33.172Z,9.98
2023-04-15T06:40:01.472Z,9.60
2023-04-15T06:42:29.730Z,9.48
2023-04-15T06:44:58.061Z,10.60
2023-04-15T06:47:26.258Z,9.18
2023-04-15T06:49:54.665Z,8.90
2023-04-15T06:52:22.819Z,12.73
2023-04-15T06:54:51.043Z,9.63
2023-04-15T06:57:19.236Z,12.88
2023-04-15T06:59:47.410Z,8.65
2023-04-15T07:02:15.867Z,13.25
2023-04-15T07:04:44.182Z,9.88
2023-04-15T07:07:12.438Z,11.50
2023-04-15T07:09:40.677Z,8.70
2023-04-15T07:12:08.846Z,10.38
2023-04-15T07:14:37.198Z,8.82
2023-04-15T07:17:05.472Z,10.82
2023-04-15T07:19:33.842Z,13.52
2023-04-15T07:22:02.136Z,8.93
2023-04-15T07:24:30.548Z,9.80
2023-04-15T07:26:59.531Z,12.07
2023-04-15T07:29:29.206Z,10.73
2023-04-15T07:31:57.602Z,12.65
2023-04-15T07:34:25.884Z,8.55
2023-04-15T07:36:54.091Z,9.95
2023-04-15T07:39:22.331Z,9.90
2023-04-15T07:41:50.702Z,10.20
2023-04-15T07:44:19.205Z,11.50
2023-04-15T07:46:47.346Z,11.85
2023-04-15T07:49:15.608Z,9.57
2023-04-15T07:51:43.841Z,9.07
2023-04-15T07:54:12.174Z,11.27
2023-04-15T07:56:40.262Z,13.73
2023-04-15T07:59:08.834Z,14.45
2023-04-15T08:01:37.905Z,11.80
2023-04-15T08:04:06.345Z,14.88
2023-04-15T08:06:34.641Z,8.77
2023-04-15T08:09:03.082Z,11.85
2023-04-15T08:11:31.549Z,11.13
2023-04-15T08:13:59.823Z,14.90
2023-04-15T08:16:28.285Z,16.20
2023-04-15T08:18:57.431Z,12.13
2023-04-15T08:21:26.264Z,14.27
2023-04-15T08:26:23.190Z,18.33
2023-04-15T08:28:51.552Z,11.85
2023-04-15T08:31:20.248Z,11.93
2023-04-15T08:33:49.050Z,13.90
2023-04-15T08:36:17.318Z,11.80
2023-04-15T08:38:45.957Z,11.93
2023-04-15T08:41:22.734Z,10.50
2023-04-15T08:44:04.212Z,10.27
2023-04-15T08:46:33.309Z,9.40
2023-04-15T08:49:05.472Z,8.18
2023-04-15T08:51:34.074Z,9.73
2023-04-15T08:54:02.886Z,9.05
2023-04-15T08:56:33.558Z,6.97
2023-04-15T08:59:02.540Z,9.13
2023-04-15T09:01:32.312Z,7.32
2023-04-15T09:04:03.433Z,7.60
2023-04-15T09:06:31.757Z,9.35
2023-04-15T09:09:00.354Z,8.43
2023-04-15T09:13:57.511Z,9.15
2023-04-15T09:16:25.864Z,11.23
2023-04-15T09:21:22.607Z,8.30
2023-04-15T09:23:59.384Z,7.22
2023-04-15T09:26:38.743Z,7.13
2023-04-15T09:29:11.691Z,14.27
2023-04-15T09:31:40.854Z,7.72
2023-04-15T09:34:09.117Z,9.93
2023-04-15T09:36:54.604Z,10.52
2023-04-15T09:39:23.102Z,12.18
2023-04-15T09:42:09.476Z,13.55
2023-04-15T09:44:38.393Z,11.57
2023-04-15T09:47:07.102Z,9.10
2023-04-15T09:49:35.475Z,11.02
2023-04-15T09:52:05.655Z,12.18
2023-04-15T09:54:36.449Z,8.50
2023-04-15T09:57:09.615Z,10.25
2023-04-15T09:59:37.933Z,10.10
2023-04-15T10:02:06.875Z,9.88
2023-04-15T10:04:41.836Z,9.20
2023-04-15T10:07:12.347Z,8.95
2023-04-15T10:09:40.761Z,9.50
2023-04-15T10:12:09.661Z,7.90
2023-04-15T10:14:39.213Z,9.25
2023-04-15T10:17:11.501Z,9.27
2023-04-15T10:19:41.084Z,8.43
2023-04-15T10:22:09.784Z,10.02
2023-04-15T10:27:08.544Z,10.77
2023-04-15T10:29:37.277Z,10.20
2023-04-15T10:34:34.148Z,10.50
2023-04-15T10:37:03.380Z,8.55
2023-04-15T10:39:34.938Z,9.70
2023-04-15T10:42:19.990Z,11.15
2023-04-15T10:44:57.272Z,8.73
2023-04-15T10:47:25.509Z,8.77
2023-04-15T10:49:59.461Z,9.05
2023-04-15T10:52:29.465Z,10.85
2023-04-15T10:55:25.120Z,8.18
2023-04-15T10:57:55.087Z,7.72
2023-04-15T11:00:27.434Z,7.50
2023-04-15T11:03:05.712Z,10.95
2023-04-15T11:05:43.145Z,10.75
2023-04-15T11:08:12.938Z,6.80
2023-04-15T11:10:41.212Z,10.15
2023-04-15T11:13:12.390Z,9.30
2023-04-15T11:15:48.600Z,12.68
2023-04-15T11:18:24.647Z,12.75
2023-04-15T11:20:57.983Z,10.48
2023-04-15T11:23:33.805Z,11.45
2023-04-15T11:26:04.371Z,8.80
2023-04-15T11:28:33.834Z,10.48
2023-04-15T11:31:09.947Z,8.77
2023-04-15T11:33:38.832Z,10.23
2023-04-15T11:36:07.242Z,10.50
2023-04-15T11:38:35.699Z,9.80
2023-04-15T11:43:33.470Z,10.85
2023-04-15T11:46:03.595Z,10.82
2023-04-15T11:48:36.912Z,10.98
2023-04-15T11:51:07.270Z,12.93
2023-04-15T11:53:50.244Z,11.15
2023-04-15T11:56:19.229Z,10.45
2023-04-15T11:58:48.107Z,7.72
2023-04-15T12:01:16.231Z,5.95
2023-04-15T12:03:47.442Z,6.22
2023-04-15T12:06:26.164Z,8.73
2023-04-15T12:09:13.904Z,8.80
2023-04-15T12:11:48.910Z,6.95
2023-04-15T12:14:25.866Z,8.25
2023-04-15T12:16:58.339Z,9.13
2023-04-15T12:19:31.015Z,7.32
2023-04-15T12:22:09.214Z,7.47
2023-04-15T12:24:38.652Z,11.18
2023-04-15T12:27:08.708Z,5.15
2023-04-15T12:29:38.465Z,6.80
2023-04-15T12:32:10.704Z,7.38
2023-04-15T12:34:51.018Z,4.70
2023-04-15T12:37:19.498Z,6.40
2023-04-15T12:39:50.582Z,6.18
2023-04-15T12:42:19.350Z,5.10
2023-04-15T12:47:15.963Z,5.85
2023-04-15T12:49:44.107Z,7.03
2023-04-15T12:52:12.356Z,6.07
2023-04-15T12:54:40.777Z,6.47
2023-04-15T12:59:37.156Z,8.20
2023-04-15T13:02:05.818Z,8.65
2023-04-15T13:07:03.165Z,6.20
2023-04-15T13:09:31.407Z,6.15
2023-04-15T13:11:59.686Z,8.10
2023-04-15T13:14:27.823Z,7.45
2023-04-15T13:16:56.205Z,7.03
2023-04-15T13:19:24.500Z,7.75
2023-04-15T13:21:52.725Z,7.47
2023-04-15T13:26:50.198Z,5.90
2023-04-15T13:29:18.770Z,8.30
2023-04-15T13:31:47.323Z,6.47
2023-04-15T13:34:15.433Z,6.00
2023-04-15T13:36:43.879Z,7.22
2023-04-15T13:39:12.159Z,7.75
2023-04-15T13:41:41.395Z,5.97
2023-04-15T13:46:41.332Z,4.57
2023-04-15T13:49:09.665Z,5.22
2023-04-15T13:51:37.807Z,7.93
2023-04-15T13:54:06.254Z,8.93
2023-04-15T13:56:34.843Z,7.75
2023-04-15T13:59:03.552Z,7.10
2023-04-15T14:01:31.874Z,5.72
2023-04-15T14:06:29.017Z,4.18
2023-04-15T14:08:57.183Z,6.88
2023-04-15T14:11:25.479Z,5.55
2023-04-15T14:13:53.622Z,6.95
2023-04-15T14:16:21.875Z,6.93
2023-04-15T14:18:50.161Z,5.28
2023-04-15T14:21:18.332Z,6.95
2023-04-15T14:23:46.487Z,7.75
2023-04-15T14:26:14.629Z,7.03
2023-04-15T14:28:42.998Z,5.18
2023-04-15T14:31:11.469Z,5.15
2023-04-15T14:36:08.586Z,6.35
2023-04-15T14:38:37.421Z,5.90
2023-04-15T14:41:06.371Z,4.78
2023-04-15T14:43:35.487Z,6.45
2023-04-15T14:46:03.815Z,6.68
2023-04-15T14:48:32.666Z,5.80
2023-04-15T14:51:00.989Z,4.75
2023-04-15T14:53:29.129Z,4.15
2023-04-15T14:55:57.468Z,3.63
2023-04-15T15:00:53.682Z,4.78
2023-04-15T15:03:22.383Z,5.20
2023-04-15T15:05:50.640Z,8.45
2023-04-15T15:08:18.948Z,4.28
2023-04-15T15:10:50.219Z,5.72
2023-04-15T15:13:19.126Z,6.22
2023-04-15T15:15:47.616Z,6.80
2023-04-15T15:18:16.907Z,4.88
2023-04-15T15:20:45.488Z,4.15
2023-04-15T15:23:15.470Z,4.50
2023-04-15T15:25:44.310Z,4.63
2023-04-15T15:28:12.694Z,3.42
2023-04-15T15:33:08.938Z,4.30
2023-04-15T15:35:37.143Z,2.97
2023-04-15T15:38:05.502Z,6.57
2023-04-15T15:40:33.706Z,6.00
2023-04-15T15:43:01.897Z,4.90
2023-04-15T15:45:30.531Z,6.50
2023-04-15T15:47:58.944Z,4.93
2023-04-15T15:50:27.134Z,4.45
2023-04-15T15:53:02.378Z,4.95
2023-04-15T15:55:34.832Z,6.47
2023-04-15T15:58:03.061Z,5.90
2023-04-15T16:00:31.649Z,5.20
2023-04-15T16:05:30.603Z,3.05
2023-04-15T16:07:58.912Z,4.93
2023-04-15T16:12:55.427Z,5.47
2023-04-15T16:15:25.668Z,3.90
2023-04-15T16:17:54.026Z,5.82
2023-04-15T16:20:22.142Z,4.68
2023-04-15T16:22:51.040Z,5.85
2023-04-15T16:25:19.428Z,4.50
2023-04-15T16:30:31.854Z,4.20
2023-04-15T16:35:28.162Z,3.05
2023-04-15T16:40:24.892Z,6.00
2023-04-15T16:42:53.402Z,4.43
2023-04-15T16:45:21.900Z,4.75
2023-04-15T16:47:50.084Z,6.07
2023-04-15T16:50:18.373Z,5.82
2023-04-15T16:55:14.668Z,4.88
2023-04-15T16:58:01.883Z,7.63
2023-04-15T17:03:03.608Z,6.38
2023-04-15T17:05:32.086Z,5.97
2023-04-15T17:08:00.337Z,5.78
2023-04-15T17:10:29.037Z,7.70
2023-04-15T17:12:58.438Z,5.20
2023-04-15T17:15:28.285Z,6.05
2023-04-15T17:17:56.708Z,5.18
2023-04-15T17:22:53.369Z,6.00
2023-04-15T17:25:21.742Z,5.57
2023-04-15T17:30:17.910Z,6.10
2023-04-15T17:32:46.286Z,7.43
2023-04-15T17:35:14.407Z,5.47
2023-04-15T17:37:42.613Z,5.80
2023-04-15T17:40:11.427Z,8.73
2023-04-15T17:42:39.538Z,10.27
2023-04-15T17:45:08.575Z,6.53
2023-04-15T17:47:36.904Z,7.88
2023-04-15T17:50:05.279Z,8.88
2023-04-15T17:55:01.560Z,7.15
2023-04-15T17:57:30.341Z,4.90
2023-04-15T17:59:58.688Z,10.48
2023-04-15T18:02:27.067Z,7.63
2023-04-15T18:07:23.771Z,5.75
2023-04-15T18:09:52.706Z,8.60
2023-04-15T18:12:20.880Z,7.00
2023-04-15T18:14:49.118Z,8.68
2023-04-15T18:17:17.986Z,7.72
2023-04-15T18:19:55.519Z,10.63
2023-04-15T18:22:23.857Z,9.80
2023-04-15T18:24:52.188Z,8.68
2023-04-15T18:27:20.289Z,11.23
2023-04-15T18:29:48.471Z,8.75
2023-04-15T18:32:16.787Z,9.95
2023-04-15T18:34:44.873Z,10.07
2023-04-15T18:37:13.158Z,9.40
2023-04-15T18:39:41.436Z,9.00
2023-04-15T18:42:09.509Z,9.45
2023-04-15T18:44:37.791Z,8.65
2023-04-15T18:47:06.013Z,10.30
2023-04-15T18:49:34.182Z,9.30
2023-04-15T18:52:02.325Z,9.70
2023-04-15T18:54:30.598Z,10.43
2023-04-15T18:56:58.843Z,11.15
2023-04-15T18:59:30.229Z,11.85
2023-04-15T19:02:00.599Z,11.27
2023-04-15T19:04:29.323Z,9.07
2023-04-15T19:06:57.725Z,10.07
2023-04-15T19:09:26.008Z,11.43
2023-04-15T19:11:54.234Z,14.27
2023-04-15T19:14:22.653Z,13.52
2023-04-15T19:19:18.888Z,11.65
2023-04-15T19:21:47.296Z,14.57
2023-04-15T19:26:44.391Z,13.35
2023-04-15T19:29:12.453Z,14.10
2023-04-15T19:31:40.934Z,13.65
2023-04-15T19:34:09.374Z,12.93
2023-04-15T19:36:37.475Z,17.48
2023-04-15T19:39:06.211Z,13.68
2023-04-15T19:41:34.855Z,17.58
2023-04-15T19:44:02.998Z,20.52
2023-04-15T19:46:31.476Z,17.23
2023-04-15T19:49:00.861Z,18.90
2023-04-15T19:51:30.681Z,16.75
2023-04-15T19:53:58.873Z,16.45
2023-04-15T19:56:27.106Z,16.63
2023-04-15T19:58:55.819Z,17.70
2023-04-15T20:01:23.982Z,16.17
2023-04-15T20:03:54.870Z,19.13
2023-04-15T20:06:23.215Z,16.20
2023-04-15T20:08:51.431Z,19.27
2023-04-15T20:11:19.863Z,18.60
2023-04-15T20:16:16.058Z,17.50
2023-04-15T20:21:12.533Z,20.70
2023-04-15T20:23:41.708Z,14.63
2023-04-15T20:26:09.926Z,16.63
2023-04-15T20:28:38.215Z,18.90
2023-04-15T20:31:06.496Z,19.63
2023-04-15T20:33:34.771Z,22.63
2023-04-15T20:36:02.967Z,19.05
2023-04-15T20:38:31.318Z,24.92
2023-04-15T20:43:27.582Z,22.98
2023-04-15T20:46:04.190Z,25.55
2023-04-15T20:48:38.244Z,27.85
2023-04-15T20:51:06.601Z,28.35
2023-04-15T20:56:02.835Z,28.20
2023-04-15T20:58:31.011Z,30.77
2023-04-15T21:00:59.266Z,31.58
2023-04-15T21:03:27.771Z,34.47
2023-04-15T21:05:56.012Z,31.20
2023-04-15T21:08:24.322Z,35.13
2023-04-15T21:10:52.520Z,37.63
2023-04-15T21:13:20.919Z,38.83
2023-04-15T21:15:49.068Z,38.38
2023-04-15T21:18:17.231Z,40.92
2023-04-15T21:20:45.530Z,40.58
2023-04-15T21:23:13.973Z,47.72
2023-04-15T21:25:42.102Z,42.63
2023-04-15T21:28:10.843Z,43.03
2023-04-15T21:30:39.153Z,47.58
2023-04-15T21:33:07.244Z,46.67
2023-04-15T21:35:35.367Z,44.28
2023-04-15T21:38:03.668Z,42.80
2023-04-15T21:40:31.727Z,58.92
2023-04-15T21:42:59.989Z,61.40
2023-04-15T21:45:28.169Z,65.70
2023-04-15T21:47:56.738Z,70.82
2023-04-15T21:50:36.315Z,72.40
2023-04-15T21:53:05.312Z,74.65
2023-04-15T21:55:33.532Z,68.75
2023-04-15T21:58:01.825Z,74.05
2023-04-15T22:00:30.468Z,71.47
2023-04-15T22:02:58.934Z,63.75
2023-04-15T22:05:27.233Z,63.78
2023-04-15T22:07:55.699Z,52.53
2023-04-15T22:10:24.021Z,54.90
2023-04-15T22:12:52.444Z,52.17
2023-04-15T22:15:20.916Z,50.20
2023-04-15T22:17:49.443Z,50.22
2023-04-15T22:22:45.961Z,42.50
2023-04-15T22:25:14.934Z,40.42
2023-04-15T22:27:43.102Z,42.03
2023-04-15T22:30:11.929Z,47.90
2023-04-15T22:32:40.289Z,45.17
2023-04-15T22:35:09.177Z,41.97
2023-04-15T22:40:05.730Z,45.67
